Time;durP1;ratioP1;P1;durP2;ratioP2;P2;SDS_P1;SDS_P2;PMS_P1;PMS_P2;Temp;Humidity;BMP_temperature;BMP_pressure;BME280_temperature;BME280_humidity;BME280_pressure;Samples;Min_cycle;Max_cycle;Signal;HPM_P1;HPM_P2
2022/10/06 00:00:49;;;;;;;0.30;0.30;;;;;;;4.73;69.62;94655.38;5079717;28;20536;-35
2022/10/06 00:03:15;;;;;;;1.35;1.25;;;;;;;4.62;69.77;94649.78;5084820;28;20385;-35
2022/10/06 00:05:41;;;;;;;0.52;0.52;;;;;;;4.92;69.15;94642.91;5091454;28;20028;-35
2022/10/06 00:08:07;;;;;;;0.45;0.45;;;;;;;4.88;69.22;94644.34;5087579;28;20458;-35
2022/10/06 00:10:33;;;;;;;0.38;0.38;;;;;;;5.07;68.75;94645.50;5080711;28;20032;-34
2022/10/06 00:12:58;;;;;;;0.22;0.22;;;;;;;5.16;68.36;94645.34;5091847;28;20031;-35
2022/10/06 00:15:28;;;;;;;0.40;0.40;;;;;;;5.21;68.80;94647.41;5086616;28;20047;-35
2022/10/06 00:17:54;;;;;;;0.28;0.28;;;;;;;4.95;69.49;94641.94;5084783;28;20032;-35
2022/10/06 00:20:20;;;;;;;0.35;0.35;;;;;;;4.81;70.24;94647.53;5080561;28;20027;-34
2022/10/06 00:22:48;;;;;;;0.30;0.30;;;;;;;4.81;69.95;94642.78;5084759;28;20032;-35
2022/10/06 00:25:16;;;;;;;0.30;0.30;;;;;;;4.68;70.16;94638.94;5084727;28;20020;-35
2022/10/06 00:27:46;;;;;;;0.88;0.82;;;;;;;4.91;69.23;94635.19;5080230;28;20062;-35
2022/10/06 00:30:13;;;;;;;0.55;0.55;;;;;;;5.00;68.10;94615.84;5083073;28;20048;-34
2022/10/06 00:32:39;;;;;;;1.10;1.10;;;;;;;4.92;69.23;94628.44;5088047;28;20578;-35
2022/10/06 00:35:06;;;;;;;0.30;0.30;;;;;;;4.66;70.29;94625.00;5081374;28;20020;-35
2022/10/06 00:37:36;;;;;;;0.40;0.40;;;;;;;4.59;70.70;94626.16;5088069;28;20020;-34
2022/10/06 00:40:08;;;;;;;2.88;1.65;;;;;;;4.52;70.41;94623.84;5062126;28;20450;-35
2022/10/06 00:42:33;;;;;;;1.27;1.05;;;;;;;4.60;69.54;94614.72;5089848;28;20017;-35
2022/10/06 00:45:03;;;;;;;0.30;0.30;;;;;;;4.92;68.91;94621.00;5067777;28;20043;-35
2022/10/06 00:47:30;;;;;;;0.30;0.30;;;;;;;4.72;68.57;94621.03;5084687;28;20024;-35
2022/10/06 00:49:57;;;;;;;0.38;0.38;;;;;;;4.62;68.94;94619.72;5081525;28;20077;-35
2022/10/06 00:52:24;;;;;;;0.30;0.30;;;;;;;4.73;67.86;94619.81;5069164;28;20023;-34
2022/10/06 00:54:50;;;;;;;0.45;0.45;;;;;;;4.81;67.56;94614.69;5066080;28;20495;-35
2022/10/06 00:57:17;;;;;;;0.25;0.25;;;;;;;4.81;68.03;94609.94;5084046;28;20024;-34
2022/10/06 00:59:43;;;;;;;0.40;0.40;;;;;;;4.63;68.57;94607.56;5067788;28;20016;-35
2022/10/06 01:02:12;;;;;;;1.27;0.73;;;;;;;4.70;68.28;94603.63;5087661;28;20020;-35
2022/10/06 01:04:41;;;;;;;0.30;0.30;;;;;;;4.71;67.64;94602.38;5063585;28;20020;-35
2022/10/06 01:07:07;;;;;;;0.30;0.30;;;;;;;4.72;67.89;94598.44;5071088;28;20059;-34
2022/10/06 01:09:33;;;;;;;0.50;0.50;;;;;;;4.68;68.24;94589.69;5067125;28;20456;-35
2022/10/06 01:12:00;;;;;;;1.55;1.45;;;;;;;4.45;68.30;94569.56;5084778;28;20503;-35
2022/10/06 01:14:26;;;;;;;0.60;0.60;;;;;;;4.33;68.94;94589.84;5087910;28;20039;-34
2022/10/06 01:17:21;;;;;;;0.38;0.38;;;;;;;4.18;69.71;94595.34;5066327;28;20023;-34
2022/10/06 01:19:53;;;;;;;0.20;0.20;;;;;;;4.36;68.68;94586.13;5058935;28;20020;-34
2022/10/06 01:22:36;;;;;;;0.77;0.77;;;;;;;4.31;68.98;94590.28;5066381;28;20025;-35
2022/10/06 01:25:03;;;;;;;0.60;0.60;;;;;;;4.34;68.74;94594.06;5080768;28;20020;-34
2022/10/06 01:27:30;;;;;;;0.55;0.55;;;;;;;4.16;68.96;94595.09;5063190;28;20040;-34
2022/10/06 01:29:56;;;;;;;1.13;0.98;;;;;;;4.05;69.74;94589.50;5062163;28;20045;-35
2022/10/06 01:32:24;;;;;;;0.82;0.82;;;;;;;3.95;70.02;94592.84;5061173;28;20031;-35
2022/10/06 01:34:49;;;;;;;0.45;0.45;;;;;;;3.89;69.89;94573.66;5067588;28;20024;-35
2022/10/06 01:37:16;;;;;;;0.47;0.47;;;;;;;3.97;70.22;94593.13;5082797;28;20044;-35
2022/10/06 01:39:42;;;;;;;0.30;0.30;;;;;;;3.86;70.51;94591.00;5083924;28;20028;-35
2022/10/06 01:42:08;;;;;;;0.30;0.30;;;;;;;3.83;70.62;94589.25;5083655;28;20032;-35
2022/10/06 01:44:34;;;;;;;0.57;0.57;;;;;;;3.75;71.18;94583.41;5087059;28;20024;-35
2022/10/06 01:46:59;;;;;;;0.57;0.57;;;;;;;3.87;70.60;94580.81;5082736;28;20062;-34
2022/10/06 01:49:24;;;;;;;0.60;0.60;;;;;;;4.04;69.54;94587.25;5081460;28;20024;-35
2022/10/06 01:51:50;;;;;;;0.50;0.50;;;;;;;3.90;69.87;94586.06;5081089;28;20129;-34
2022/10/06 01:54:15;;;;;;;1.35;1.23;;;;;;;3.88;70.00;94583.06;5088552;28;20403;-34
2022/10/06 01:56:42;;;;;;;0.93;0.88;;;;;;;4.00;69.39;94586.69;5077987;28;20024;-34
2022/10/06 01:59:07;;;;;;;1.73;1.13;;;;;;;3.91;69.53;94584.88;5082084;28;20031;-35
2022/10/06 02:01:33;;;;;;;0.63;0.63;;;;;;;3.91;69.95;94584.88;5086907;28;20039;-34
2022/10/06 02:03:58;;;;;;;0.52;0.52;;;;;;;3.99;70.27;94574.25;5086777;28;20024;-35
2022/10/06 02:06:24;;;;;;;1.13;0.88;;;;;;;4.00;69.08;94578.50;5081518;28;20027;-34
2022/10/06 02:08:50;;;;;;;0.40;0.40;;;;;;;3.73;70.37;94579.66;5079182;28;20032;-35
2022/10/06 02:11:17;;;;;;;0.30;0.30;;;;;;;3.82;70.29;94583.00;5079561;28;20035;-35
2022/10/06 02:13:42;;;;;;;0.30;0.30;;;;;;;3.67;71.27;94576.09;5083837;28;20412;-34
2022/10/06 02:16:09;;;;;;;0.38;0.38;;;;;;;3.48;71.42;94586.53;5079496;28;20047;-35
2022/10/06 02:18:35;;;;;;;0.50;0.50;;;;;;;3.48;71.19;94580.31;5084409;28;20056;-35
2022/10/06 02:21:01;;;;;;;0.35;0.35;;;;;;;3.23;71.04;94556.41;5086224;28;20039;-35
2022/10/06 02:23:28;;;;;;;0.30;0.30;;;;;;;3.35;71.35;94582.59;5080147;28;20024;-34
2022/10/06 02:26:01;;;;;;;0.28;0.28;;;;;;;3.70;70.28;94578.63;5079849;28;20036;-35
2022/10/06 02:28:27;;;;;;;0.30;0.30;;;;;;;3.83;69.71;94581.78;5084201;28;20028;-35
2022/10/06 02:30:53;;;;;;;0.85;0.85;;;;;;;3.85;69.74;94578.59;5082026;28;20131;-34
2022/10/06 02:33:18;;;;;;;0.20;0.20;;;;;;;3.61;70.43;94581.50;5086348;28;20056;-35
2022/10/06 02:35:44;;;;;;;0.70;0.70;;;;;;;3.73;70.58;94585.88;5084597;28;20032;-35
2022/10/06 02:38:09;;;;;;;0.90;0.60;;;;;;;3.88;69.58;94588.53;5079028;28;20021;-34
2022/10/06 02:40:35;;;;;;;0.40;0.40;;;;;;;3.83;69.34;94583.78;5086466;28;20054;-34
2022/10/06 02:43:00;;;;;;;0.22;0.22;;;;;;;3.80;69.25;94584.72;5060269;28;20043;-35
2022/10/06 02:45:26;;;;;;;0.50;0.50;;;;;;;3.70;70.00;94581.34;5079365;28;20031;-34
2022/10/06 02:47:55;;;;;;;0.88;0.88;;;;;;;3.42;71.17;94593.13;5077299;28;20027;-34
2022/10/06 02:50:20;;;;;;;0.30;0.30;;;;;;;3.25;71.16;94589.41;5086559;28;20028;-35
2022/10/06 02:52:46;;;;;;;0.40;0.40;;;;;;;3.21;71.56;94584.13;5082412;28;20044;-35
2022/10/06 02:55:12;;;;;;;0.40;0.40;;;;;;;3.28;71.12;94580.25;5079724;28;20024;-34
2022/10/06 02:57:38;;;;;;;1.33;1.33;;;;;;;3.46;70.81;94580.81;5081142;28;20028;-35
2022/10/06 03:00:06;;;;;;;0.63;0.57;;;;;;;3.49;70.65;94573.63;5079163;28;20020;-35
2022/10/06 03:02:32;;;;;;;0.38;0.38;;;;;;;3.65;69.96;94581.28;5066725;28;20024;-35
2022/10/06 03:04:58;;;;;;;0.95;0.95;;;;;;;3.52;69.53;94583.59;5086156;28;20103;-35
2022/10/06 03:07:23;;;;;;;0.60;0.60;;;;;;;3.28;70.77;94580.25;5084892;28;20024;-34
2022/10/06 03:09:49;;;;;;;2.03;1.63;;;;;;;3.39;70.49;94583.16;5080493;28;20024;-35
2022/10/06 03:12:14;;;;;;;3.00;2.83;;;;;;;3.33;70.25;94579.59;5081255;28;20024;-35
2022/10/06 03:14:40;;;;;;;8.77;5.63;;;;;;;3.05;71.04;94581.91;5078457;28;20024;-34
2022/10/06 03:17:07;;;;;;;2.78;1.80;;;;;;;3.29;71.26;94585.25;5084840;28;20028;-35
2022/10/06 03:19:32;;;;;;;1.25;1.17;;;;;;;3.07;71.22;94582.19;5081712;28;20519;-35
2022/10/06 03:21:58;;;;;;;3.20;1.88;;;;;;;3.00;72.29;94575.16;5081528;28;20033;-35
2022/10/06 03:24:23;;;;;;;0.25;0.25;;;;;;;3.26;71.40;94575.28;5088560;28;20020;-34
2022/10/06 03:26:49;;;;;;;0.30;0.30;;;;;;;3.47;70.42;94578.81;5085008;28;20024;-34
2022/10/06 03:29:15;;;;;;;0.50;0.50;;;;;;;3.41;70.66;94562.34;5086344;28;20020;-35
2022/10/06 03:31:41;;;;;;;1.30;1.17;;;;;;;3.41;70.58;94580.72;5083603;28;20495;-35
2022/10/06 03:34:06;;;;;;;1.08;1.08;;;;;;;3.07;70.65;94574.00;5078572;28;20157;-35
2022/10/06 03:36:33;;;;;;;0.30;0.30;;;;;;;2.97;71.26;94570.63;5092757;28;20028;-35
2022/10/06 03:38:59;;;;;;;1.15;1.05;;;;;;;3.04;70.82;94566.75;5090542;28;20040;-34
2022/10/06 03:41:26;;;;;;;0.60;0.60;;;;;;;3.15;70.87;94574.38;5080460;28;20058;-35
2022/10/06 03:43:54;;;;;;;1.45;1.38;;;;;;;3.30;70.23;94575.09;5089693;28;20047;-35
2022/10/06 03:46:21;;;;;;;0.32;0.32;;;;;;;3.05;70.74;94566.28;5086676;28;20036;-34
2022/10/06 03:48:48;;;;;;;0.88;0.82;;;;;;;3.12;70.72;94570.59;5085350;28;20112;-35
2022/10/06 03:51:16;;;;;;;0.82;0.77;;;;;;;3.32;70.24;94575.34;5089110;28;20491;-34
2022/10/06 03:53:43;;;;;;;0.70;0.70;;;;;;;3.16;70.47;94576.63;5085204;28;20144;-34
2022/10/06 03:56:20;;;;;;;0.40;0.40;;;;;;;3.06;70.83;94573.25;5081470;28;20028;-35
2022/10/06 03:58:49;;;;;;;0.40;0.40;;;;;;;3.12;71.23;94565.16;5083562;28;20036;-34
2022/10/06 04:01:20;;;;;;;0.68;0.68;;;;;;;3.19;70.33;94564.75;5087176;28;20032;-34
2022/10/06 04:03:46;;;;;;;0.30;0.30;;;;;;;3.28;70.45;94572.06;5088990;28;20042;-34
2022/10/06 04:06:16;;;;;;;0.65;0.65;;;;;;;2.90;71.55;94568.28;5086317;28;20032;-34
2022/10/06 04:08:42;;;;;;;1.25;1.25;;;;;;;3.12;71.02;94562.41;5081022;28;20131;-34
2022/10/06 04:11:10;;;;;;;2.10;2.00;;;;;;;2.99;71.02;94567.41;5087187;28;20019;-34
2022/10/06 04:13:36;;;;;;;1.27;1.27;;;;;;;2.78;71.61;94563.13;5083276;28;20027;-34
2022/10/06 04:16:29;;;;;;;3.50;3.30;;;;;;;2.58;71.98;94555.59;5081959;28;20408;-35
2022/10/06 04:18:57;;;;;;;6.43;3.95;;;;;;;2.56;72.01;94560.78;5080842;28;20044;-35
2022/10/06 04:21:23;;;;;;;1.95;1.85;;;;;;;2.59;72.18;94570.75;5080421;28;20054;-35
2022/10/06 04:23:51;;;;;;;0.60;0.60;;;;;;;2.62;72.24;94567.06;5080661;28;20036;-35
2022/10/06 04:26:18;;;;;;;2.92;2.65;;;;;;;2.53;72.42;94564.47;5070922;28;20028;-35
2022/10/06 04:28:44;;;;;;;3.72;3.47;;;;;;;2.54;73.19;94565.94;5087014;28;20022;-35
2022/10/06 04:31:19;;;;;;;7.43;6.47;;;;;;;2.89;72.26;94568.75;5078182;28;20127;-35
2022/10/06 04:33:45;;;;;;;3.25;2.83;;;;;;;2.82;71.80;94572.63;5089366;28;20503;-34
2022/10/06 04:36:16;;;;;;;3.85;3.65;;;;;;;2.96;71.44;94565.66;5085905;28;20058;-34
2022/10/06 04:38:41;;;;;;;4.00;3.25;;;;;;;3.01;71.45;94573.91;5089344;28;20035;-34
2022/10/06 04:41:18;;;;;;;2.05;1.95;;;;;;;2.89;71.99;94569.53;5080249;28;20027;-35
2022/10/06 04:43:45;;;;;;;4.95;4.55;;;;;;;2.91;72.00;94567.06;5081641;28;20458;-34
2022/10/06 04:46:11;;;;;;;2.67;2.50;;;;;;;2.94;72.01;94563.41;5068688;28;20032;-34
2022/10/06 04:48:37;;;;;;;4.72;4.40;;;;;;;2.97;72.51;94575.31;5081031;28;20039;-34
2022/10/06 04:51:05;;;;;;;3.65;3.35;;;;;;;2.81;73.41;94576.59;5084269;28;20024;-34
2022/10/06 04:53:31;;;;;;;4.28;2.85;;;;;;;3.06;72.20;94575.97;5085197;28;20082;-34
2022/10/06 04:56:09;;;;;;;2.97;2.78;;;;;;;3.02;72.20;94578.16;5080148;28;20105;-35
2022/10/06 04:58:46;;;;;;;1.60;1.60;;;;;;;3.11;71.92;94571.84;5078653;28;20062;-35
2022/10/06 05:01:24;;;;;;;1.25;1.25;;;;;;;2.85;72.87;94579.13;5080797;28;20032;-35
2022/10/06 05:03:52;;;;;;;4.32;4.03;;;;;;;2.81;73.56;94575.81;5078859;28;20116;-34
2022/10/06 05:06:20;;;;;;;4.53;3.60;;;;;;;2.83;74.00;94578.84;5083550;28;20486;-35
2022/10/06 05:08:50;;;;;;;4.43;4.05;;;;;;;2.88;74.49;94578.19;5080227;28;20051;-35
2022/10/06 05:11:16;;;;;;;5.50;4.57;;;;;;;2.99;74.23;94583.78;5082948;28;20020;-35
2022/10/06 05:13:42;;;;;;;3.05;2.85;;;;;;;3.02;74.13;94583.63;5081956;28;20031;-35
2022/10/06 05:16:10;;;;;;;5.20;4.93;;;;;;;3.21;73.93;94581.41;5084290;28;20104;-35
2022/10/06 05:18:36;;;;;;;4.30;1.75;;;;;;;3.17;73.52;94582.81;5080468;28;20028;-34
2022/10/06 05:21:07;;;;;;;3.70;2.35;;;;;;;3.36;73.86;94581.38;5081289;28;20038;-34
2022/10/06 05:23:35;;;;;;;3.00;2.80;;;;;;;3.51;73.24;94585.56;5085075;28;20099;-34
2022/10/06 05:26:01;;;;;;;2.35;1.95;;;;;;;3.68;72.33;94578.34;5088187;28;20020;-34
2022/10/06 05:28:29;;;;;;;8.10;4.18;;;;;;;3.57;73.39;94585.66;5080384;28;20035;-35
2022/10/06 05:31:04;;;;;;;5.10;4.60;;;;;;;3.54;73.32;94583.88;5084464;28;20052;-35
2022/10/06 05:33:32;;;;;;;9.20;6.10;;;;;;;3.53;73.45;94576.91;5075225;28;20032;-35
2022/10/06 05:36:03;;;;;;;4.18;3.90;;;;;;;3.75;72.77;94586.16;5082217;28;20039;-35
2022/10/06 05:38:29;;;;;;;4.35;4.03;;;;;;;3.89;71.89;94586.56;5062693;28;20033;-35
2022/10/06 05:41:01;;;;;;;5.95;3.75;;;;;;;3.71;72.88;94584.84;5075907;28;20519;-35
2022/10/06 05:43:27;;;;;;;4.30;3.50;;;;;;;3.77;72.45;94596.59;5074673;28;20484;-35
2022/10/06 05:45:58;;;;;;;4.53;4.20;;;;;;;4.09;72.57;94590.06;5079003;28;20172;-34
2022/10/06 05:48:24;;;;;;;3.40;2.33;;;;;;;4.01;73.04;94583.47;5082319;28;20031;-35
2022/10/06 05:51:06;;;;;;;1.88;1.52;;;;;;;4.04;73.07;94581.78;5088457;28;20051;-35
2022/10/06 05:53:34;;;;;;;2.03;1.65;;;;;;;4.24;73.02;94579.78;5082437;28;20120;-35
2022/10/06 05:56:08;;;;;;;4.03;3.50;;;;;;;4.46;72.86;94587.50;5087870;28;20085;-35
2022/10/06 05:58:34;;;;;;;3.53;3.33;;;;;;;4.69;73.17;94588.44;5080374;28;20736;-35
2022/10/06 06:01:12;;;;;;;8.70;8.00;;;;;;;5.14;72.63;94587.59;5076413;28;20058;-35
2022/10/06 06:03:39;;;;;;;5.10;4.00;;;;;;;5.66;71.42;94590.94;5087068;28;20038;-35
2022/10/06 06:06:15;;;;;;;7.85;6.80;;;;;;;5.96;70.44;94601.13;5084559;28;20028;-35
2022/10/06 06:08:41;;;;;;;3.65;3.40;;;;;;;6.52;69.62;94595.88;5066051;28;20085;-35
2022/10/06 06:11:07;;;;;;;5.07;4.38;;;;;;;7.52;66.63;94594.69;5083285;28;20023;-35
2022/10/06 06:13:33;;;;;;;4.53;3.45;;;;;;;8.53;63.97;94598.72;5061872;28;20053;-35
2022/10/06 06:15:59;;;;;;;3.92;3.53;;;;;;;9.42;60.01;94596.13;5083103;28;20024;-35
2022/10/06 06:18:28;;;;;;;3.13;2.90;;;;;;;10.31;57.81;94585.00;5081613;28;20039;-36
2022/10/06 06:20:55;;;;;;;3.50;3.20;;;;;;;11.05;55.50;94600.09;5079162;28;20028;-36
2022/10/06 06:23:20;;;;;;;2.05;1.95;;;;;;;11.63;53.73;94584.38;5081690;28;20028;-36
2022/10/06 06:25:56;;;;;;;2.47;1.38;;;;;;;12.40;51.87;94592.59;5081147;28;20095;-36
2022/10/06 06:28:21;;;;;;;1.98;1.85;;;;;;;13.12;50.47;94589.09;5084410;28;20028;-36
2022/10/06 06:30:46;;;;;;;2.53;2.40;;;;;;;13.79;48.91;94584.75;5084025;28;20102;-36
2022/10/06 06:33:12;;;;;;;1.58;0.77;;;;;;;14.39;47.44;94590.75;5088685;28;20093;-36
2022/10/06 06:35:37;;;;;;;0.93;0.93;;;;;;;14.76;46.29;94581.13;5081563;28;20027;-36
2022/10/06 06:38:03;;;;;;;2.65;1.50;;;;;;;15.00;46.23;94591.81;5081680;28;20085;-36
2022/10/06 06:40:28;;;;;;;0.77;0.77;;;;;;;15.20;46.10;94590.97;5071601;28;20035;-36
2022/10/06 06:42:53;;;;;;;0.95;0.77;;;;;;;15.34;46.16;94589.50;5079944;28;20036;-36
2022/10/06 06:45:20;;;;;;;0.32;0.32;;;;;;;15.28;46.08;94585.41;5078569;28;20028;-36
2022/10/06 06:47:47;;;;;;;0.47;0.40;;;;;;;15.26;46.27;94588.00;5086344;28;20039;-36
2022/10/06 06:50:12;;;;;;;0.40;0.40;;;;;;;15.34;46.27;94583.19;5080869;28;20024;-36
2022/10/06 06:52:38;;;;;;;0.57;0.57;;;;;;;15.34;46.80;94588.75;5076495;28;20039;-36
2022/10/06 06:55:04;;;;;;;0.60;0.60;;;;;;;15.07;48.31;94579.97;5089906;28;20427;-36
2022/10/06 06:57:29;;;;;;;0.88;0.88;;;;;;;15.26;47.69;94583.19;5084431;28;20063;-36
2022/10/06 06:59:55;;;;;;;0.40;0.40;;;;;;;15.09;48.27;94578.09;5086742;28;20432;-36
2022/10/06 07:02:25;;;;;;;0.55;0.55;;;;;;;15.08;48.43;94573.84;5083064;28;20050;-36
2022/10/06 07:04:50;;;;;;;0.73;0.73;;;;;;;15.09;49.01;94569.75;5084809;28;20028;-36
2022/10/06 07:07:16;;;;;;;0.50;0.50;;;;;;;15.11;48.54;94577.59;5076337;28;20021;-36
2022/10/06 07:09:41;;;;;;;0.50;0.50;;;;;;;15.30;48.81;94571.69;5079087;28;20036;-36
2022/10/06 07:12:10;;;;;;;0.25;0.25;;;;;;;15.01;49.80;94569.00;5081244;28;20021;-36
2022/10/06 07:25:05;;;;;;;0.22;0.22;;;;;;;15.08;50.64;94568.28;5086959;28;20438;-36
2022/10/06 07:25:33;;;;;;;0.20;0.20;;;;;;;16.72;47.21;94561.13;5071802;28;20510;-36
2022/10/06 07:27:58;;;;;;;0.50;0.50;;;;;;;16.86;47.69;94557.53;5082794;28;20051;-36
2022/10/06 07:30:26;;;;;;;0.30;0.30;;;;;;;17.18;46.51;94562.41;5089125;28;20424;-35
2022/10/06 07:32:52;;;;;;;0.30;0.30;;;;;;;17.60;44.64;94546.56;5089565;28;20065;-36
2022/10/06 07:35:19;;;;;;;0.10;0.10;;;;;;;18.00;43.97;94552.03;5090696;28;20020;-36
2022/10/06 07:37:45;;;;;;;0.20;0.20;;;;;;;18.78;42.68;94550.19;5085779;28;20036;-36
2022/10/06 07:40:11;;;;;;;0.20;0.20;;;;;;;19.21;41.00;94557.13;5087947;28;20032;-36
2022/10/06 07:42:47;;;;;;;0.20;0.20;;;;;;;19.77;38.66;94563.69;5085848;28;20020;-36
2022/10/06 07:45:43;;;;;;;0.25;0.25;;;;;;;19.98;37.74;94565.97;5088567;28;20035;-36
2022/10/06 07:48:20;;;;;;;0.55;0.47;;;;;;;19.53;40.25;94548.50;5067175;28;20040;-36
2022/10/06 07:50:48;;;;;;;0.10;0.10;;;;;;;19.76;37.92;94567.81;5088786;28;20542;-36
2022/10/06 07:53:16;;;;;;;0.63;0.63;;;;;;;19.86;37.63;94548.97;5084019;28;20024;-36
2022/10/06 07:55:44;;;;;;;1.00;0.95;;;;;;;19.90;38.94;94560.50;5085034;28;20032;-36
2022/10/06 07:58:17;;;;;;;0.87;0.87;;;;;;;19.61;39.00;94565.97;5087338;28;20082;-36
2022/10/06 08:00:44;;;;;;;0.10;0.10;;;;;;;19.90;39.18;94568.91;5087364;28;20567;-36
2022/10/06 08:03:11;;;;;;;0.30;0.30;;;;;;;19.90;37.93;94565.38;5088594;28;20105;-36
2022/10/06 08:05:38;;;;;;;2.45;0.55;;;;;;;19.98;37.96;94561.13;5084481;28;20024;-37
2022/10/06 08:08:04;;;;;;;20.88;1.02;;;;;;;20.53;37.54;94560.41;5080349;28;20035;-36
2022/10/06 08:10:29;;;;;;;0.13;0.13;;;;;;;20.67;37.11;94555.84;5085592;28;20024;-36
2022/10/06 08:12:55;;;;;;;2.78;1.55;;;;;;;20.01;38.93;94550.81;5088817;28;20141;-36
2022/10/06 08:15:20;;;;;;;0.25;0.25;;;;;;;20.76;38.28;94557.19;5080193;28;20489;-36
2022/10/06 08:17:46;;;;;;;0.80;0.63;;;;;;;20.56;37.63;94552.88;5078289;28;20016;-36
2022/10/06 08:20:13;;;;;;;7.68;0.52;;;;;;;20.78;38.66;94549.66;5078173;28;20016;-36
2022/10/06 08:22:39;;;;;;;1.13;1.02;;;;;;;21.14;37.65;94552.34;5083191;28;20073;-36
2022/10/06 08:25:08;;;;;;;1.35;1.25;;;;;;;20.83;37.47;94548.63;5084685;28;20047;-36
2022/10/06 08:27:35;;;;;;;0.47;0.47;;;;;;;21.19;37.40;94538.59;5084071;28;20032;-36
2022/10/06 08:30:02;;;;;;;0.40;0.35;;;;;;;21.28;36.81;94537.84;5085492;28;20075;-36
2022/10/06 08:32:27;;;;;;;0.77;0.57;;;;;;;21.55;36.31;94541.19;5084799;28;20016;-36
2022/10/06 08:34:53;;;;;;;0.22;0.22;;;;;;;21.43;36.51;94529.09;5082092;28;20028;-36
2022/10/06 08:37:25;;;;;;;0.20;0.20;;;;;;;21.18;38.54;94520.28;5089197;28;20411;-35
2022/10/06 08:39:51;;;;;;;0.85;0.85;;;;;;;21.13;37.66;94528.41;5085501;28;20035;-36
2022/10/06 08:42:26;;;;;;;0.98;0.85;;;;;;;20.73;36.54;94531.03;5082132;28;20046;-37
2022/10/06 08:44:58;;;;;;;0.45;0.45;;;;;;;20.20;38.18;94534.03;5080929;28;20036;-36
2022/10/06 08:47:27;;;;;;;1.27;0.70;;;;;;;20.14;39.41;94528.69;5081515;28;20020;-36
2022/10/06 08:49:53;;;;;;;0.20;0.20;;;;;;;20.66;39.82;94539.63;5067701;28;20020;-36
2022/10/06 08:52:58;;;;;;;0.35;0.35;;;;;;;21.27;37.77;94534.28;5066439;28;20028;-36
2022/10/06 08:55:34;;;;;;;0.10;0.10;;;;;;;21.50;36.26;94512.06;5024130;28;20060;-36
2022/10/06 08:58:17;;;;;;;1.90;1.80;;;;;;;21.84;35.87;94527.81;5075070;28;20120;-36
2022/10/06 09:00:42;;;;;;;0.88;0.88;;;;;;;21.85;36.95;94521.56;5083849;28;20081;-36
2022/10/06 09:03:16;;;;;;;1.05;0.95;;;;;;;22.15;34.95;94522.19;5066754;28;20035;-36
2022/10/06 09:05:41;;;;;;;0.13;0.13;;;;;;;22.30;34.53;94519.75;5082263;28;20028;-36
2022/10/06 09:08:33;;;;;;;0.63;0.63;;;;;;;22.37;32.34;94520.91;5081214;28;20049;-36
2022/10/06 09:11:23;;;;;;;0.10;0.10;;;;;;;22.84;31.14;94516.28;5069453;28;20051;-36
2022/10/06 09:13:52;;;;;;;0.50;0.50;;;;;;;22.91;32.07;94518.91;5083243;28;20102;-35
2022/10/06 09:16:26;;;;;;;0.30;0.30;;;;;;;23.27;31.14;94512.81;5066394;28;20032;-36
2022/10/06 09:18:57;;;;;;;0.60;0.35;;;;;;;23.37;29.15;94514.81;5064889;28;20047;-36
2022/10/06 09:21:48;;;;;;;0.10;0.10;;;;;;;23.30;30.39;94508.75;5072111;28;20094;-36
2022/10/06 09:24:23;;;;;;;0.20;0.20;;;;;;;23.42;31.40;94506.00;5087418;28;20032;-36
2022/10/06 09:26:49;;;;;;;0.13;0.10;;;;;;;23.55;31.28;94513.13;5070919;28;20036;-36
2022/10/06 09:29:15;;;;;;;1.02;0.65;;;;;;;23.64;30.69;94489.75;5084062;28;20030;-37
2022/10/06 09:31:43;;;;;;;0.10;0.10;;;;;;;23.99;29.60;94515.91;5086562;28;20098;-36
2022/10/06 09:34:18;;;;;;;0.10;0.10;;;;;;;23.87;30.20;94504.59;5085172;28;20032;-36
2022/10/06 09:37:02;;;;;;;0.05;0.05;;;;;;;24.52;28.19;94500.78;5059982;28;20051;-36
2022/10/06 09:39:35;;;;;;;0.20;0.10;;;;;;;24.58;29.21;94498.31;5084443;28;20139;-36
2022/10/06 09:42:05;;;;;;;0.57;0.55;;;;;;;24.84;28.73;94505.53;5088561;28;20032;-36
2022/10/06 09:44:43;;;;;;;0.17;0.17;;;;;;;25.43;28.54;94501.13;5083934;28;20012;-36
2022/10/06 09:47:40;;;;;;;0.15;0.15;;;;;;;25.76;26.97;94494.41;5089819;28;20161;-36
2022/10/06 09:50:13;;;;;;;0.32;0.32;;;;;;;26.71;26.74;94500.16;5083300;28;20035;-36
2022/10/06 09:52:43;;;;;;;0.10;0.10;;;;;;;26.77;26.32;94497.63;5081637;28;20134;-36
2022/10/06 09:55:08;;;;;;;0.00;0.00;;;;;;;27.07;25.71;94495.59;5060876;28;20063;-36
2022/10/06 09:57:36;;;;;;;0.28;0.28;;;;;;;27.30;24.78;94496.03;5077595;28;20536;-36
2022/10/06 10:00:02;;;;;;;0.32;0.22;;;;;;;26.46;24.94;94492.53;5082936;28;20042;-36
2022/10/06 10:02:35;;;;;;;0.10;0.10;;;;;;;26.61;24.35;94494.72;5084024;28;20020;-36
2022/10/06 10:05:02;;;;;;;0.00;0.00;;;;;;;27.27;25.02;94493.72;5078156;28;20040;-36
2022/10/06 10:07:29;;;;;;;0.30;0.20;;;;;;;28.04;24.91;94481.09;5068283;28;20499;-36
2022/10/06 10:10:20;;;;;;;0.00;0.00;;;;;;;29.12;22.36;94487.97;5087776;28;20032;-36
2022/10/06 10:12:58;;;;;;;0.00;0.00;;;;;;;29.50;22.50;94489.53;5082566;28;20031;-36
2022/10/06 10:15:30;;;;;;;0.10;0.10;;;;;;;28.59;22.74;94479.31;5086885;28;20032;-36
2022/10/06 10:17:58;;;;;;;0.10;0.10;;;;;;;29.29;23.10;94473.03;5067532;28;20123;-36
2022/10/06 10:20:28;;;;;;;0.00;0.00;;;;;;;29.94;22.02;94476.34;5081127;28;20077;-36
2022/10/06 10:22:58;;;;;;;0.00;0.00;;;;;;;30.64;21.04;94472.53;5081406;28;20594;-36
2022/10/06 10:25:36;;;;;;;0.15;0.15;;;;;;;29.28;20.93;94482.97;5069788;28;20024;-36
2022/10/06 10:28:32;;;;;;;0.10;0.10;;;;;;;28.82;21.85;94461.84;5083343;28;20047;-36
2022/10/06 10:31:20;;;;;;;0.00;0.00;;;;;;;29.60;21.88;94470.03;5068256;28;20475;-36
2022/10/06 10:34:04;;;;;;;0.00;0.00;;;;;;;30.18;21.19;94471.56;5092769;28;20109;-36
2022/10/06 10:36:38;;;;;;;0.00;0.00;;;;;;;29.28;21.53;94465.91;5083555;28;20031;-36
2022/10/06 10:39:10;;;;;;;0.20;0.20;;;;;;;29.45;21.40;94462.31;5089184;28;20512;-36
2022/10/06 10:41:48;;;;;;;1.17;0.10;;;;;;;29.47;19.95;94458.81;5071033;28;20103;-36
2022/10/06 10:44:28;;;;;;;0.22;0.22;;;;;;;29.24;20.83;94466.47;5068982;28;20100;-36
2022/10/06 10:47:21;;;;;;;1.65;0.95;;;;;;;29.00;20.43;94456.91;5089143;28;20416;-36
2022/10/06 10:49:54;;;;;;;0.10;0.10;;;;;;;28.98;20.72;94450.41;5037362;28;20491;-36
2022/10/06 10:52:22;;;;;;;0.10;0.10;;;;;;;29.59;22.08;94447.91;5086124;28;20123;-37
2022/10/06 10:54:53;;;;;;;0.10;0.10;;;;;;;29.68;20.38;94449.69;5067210;28;20039;-36
2022/10/06 10:57:21;;;;;;;0.22;0.22;;;;;;;29.73;20.35;94454.16;5089387;28;20110;-36
2022/10/06 10:59:57;;;;;;;0.53;0.47;;;;;;;29.59;20.03;94433.66;5067858;28;20080;-36
2022/10/06 11:02:23;;;;;;;0.10;0.10;;;;;;;29.83;20.70;94443.16;5069244;28;20548;-36
2022/10/06 11:05:05;;;;;;;0.10;0.10;;;;;;;29.47;20.68;94436.06;5065112;28;20472;-36
2022/10/06 11:07:39;;;;;;;0.30;0.30;;;;;;;29.57;20.40;94437.19;5068985;28;20124;-36
2022/10/06 11:10:07;;;;;;;0.13;0.13;;;;;;;29.52;21.28;94434.84;5091357;28;20028;-36
2022/10/06 11:12:56;;;;;;;0.00;0.00;;;;;;;29.19;20.84;94438.50;5085385;28;20090;-36
2022/10/06 11:15:37;;;;;;;;;;;;;;;29.13;21.34;94427.59;5086824;28;20036;-36
2022/10/06 11:18:18;;;;;;;0.10;0.10;;;;;;;28.44;21.80;94420.38;5083598;28;19995;-36
2022/10/06 11:20:50;;;;;;;0.22;0.22;;;;;;;28.51;22.79;94424.97;5088399;28;20028;-36
2022/10/06 11:23:34;;;;;;;0.55;0.35;;;;;;;28.54;22.77;94424.38;5065053;28;20028;-36
2022/10/06 11:25:59;;;;;;;0.00;0.00;;;;;;;28.62;22.01;94417.63;5086155;28;20035;-36
2022/10/06 11:28:30;;;;;;;0.22;0.22;;;;;;;28.00;22.59;94413.53;5084991;28;20024;-36
2022/10/06 11:30:56;;;;;;;0.10;0.10;;;;;;;28.22;22.54;94416.63;5069896;28;20520;-36
2022/10/06 11:33:30;;;;;;;0.00;0.00;;;;;;;27.75;21.85;94408.09;5085188;28;20039;-36
2022/10/06 11:35:55;;;;;;;0.15;0.15;;;;;;;27.80;24.34;94409.75;5074221;28;20450;-36
2022/10/06 11:38:24;;;;;;;0.20;0.20;;;;;;;27.54;23.65;94400.78;5089858;28;20077;-36
2022/10/06 11:41:12;;;;;;;0.75;0.63;;;;;;;27.02;24.36;94404.69;5083466;28;20032;-36
2022/10/06 11:43:50;;;;;;;3.60;2.55;;;;;;;26.94;24.19;94407.13;5081650;28;20111;-36
2022/10/06 11:46:28;;;;;;;2.83;1.10;;;;;;;27.28;23.17;94402.38;5067715;28;20890;-36
2022/10/06 11:49:28;;;;;;;0.00;0.00;;;;;;;27.40;23.91;94397.28;5083962;28;20039;-36
2022/10/06 11:51:55;;;;;;;2.10;1.15;;;;;;;27.42;25.08;94390.97;5086086;28;20032;-36
2022/10/06 11:54:39;;;;;;;0.00;0.00;;;;;;;27.53;23.17;94398.56;5064444;28;20618;-35
2022/10/06 11:57:55;;;;;;;0.00;0.00;;;;;;;27.28;23.12;94390.28;5085169;28;20135;-36
2022/10/06 12:00:20;;;;;;;0.00;0.00;;;;;;;26.79;22.00;94387.97;5070738;28;20040;-36